sensor_id;sensor_type;location;lat;lon;timestamp;pressure;altitude;pressure_sealevel;temperature;humidity
46456;BME280;64052;47.466;9.094;2023-04-29T00:04:35;95521.06;;;15.77;76.14
46456;BME280;64052;47.466;9.094;2023-04-29T00:09:37;95519.88;;;15.79;76.04
46456;BME280;64052;47.466;9.094;2023-04-29T00:14:38;95529.41;;;15.65;75.49
46456;BME280;64052;47.466;9.094;2023-04-29T00:19:40;95524.09;;;15.65;75.64
46456;BME280;64052;47.466;9.094;2023-04-29T00:24:41;95527.75;;;15.64;75.49
46456;BME280;64052;47.466;9.094;2023-04-29T00:29:43;95519.88;;;15.79;75.68
46456;BME280;64052;47.466;9.094;2023-04-29T00:34:44;95512.59;;;15.73;76.00
46456;BME280;64052;47.466;9.094;2023-04-29T00:39:46;95514.56;;;15.79;75.47
46456;BME280;64052;47.466;9.094;2023-04-29T00:44:47;95512.44;;;15.74;75.51
46456;BME280;64052;47.466;9.094;2023-04-29T00:49:49;95515.41;;;15.80;75.56
46456;BME280;64052;47.466;9.094;2023-04-29T00:59:16;95524.31;;;15.95;75.03
46456;BME280;64052;47.466;9.094;2023-04-29T01:04:18;95523.72;;;15.77;75.42
46456;BME280;64052;47.466;9.094;2023-04-29T01:14:28;95505.25;;;15.83;75.71
46456;BME280;64052;47.466;9.094;2023-04-29T01:19:46;95507.50;;;16.03;75.32
46456;BME280;64052;47.466;9.094;2023-04-29T01:24:48;95514.31;;;16.06;75.28
46456;BME280;64052;47.466;9.094;2023-04-29T01:30:16;95509.56;;;15.93;76.12
46456;BME280;64052;47.466;9.094;2023-04-29T01:41:10;95507.00;;;16.08;75.51
46456;BME280;64052;47.466;9.094;2023-04-29T01:46:16;95499.53;;;16.03;75.76
46456;BME280;64052;47.466;9.094;2023-04-29T01:51:18;95508.88;;;15.99;75.74
46456;BME280;64052;47.466;9.094;2023-04-29T01:56:19;95506.84;;;16.01;75.90
46456;BME280;64052;47.466;9.094;2023-04-29T02:01:38;95504.53;;;16.06;75.72
46456;BME280;64052;47.466;9.094;2023-04-29T02:06:40;95499.13;;;16.14;75.17
46456;BME280;64052;47.466;9.094;2023-04-29T02:11:42;95506.25;;;16.22;74.58
46456;BME280;64052;47.466;9.094;2023-04-29T02:16:44;95508.63;;;16.17;74.97
46456;BME280;64052;47.466;9.094;2023-04-29T02:21:45;95517.56;;;16.24;74.67
46456;BME280;64052;47.466;9.094;2023-04-29T02:26:47;95522.06;;;16.15;74.75
46456;BME280;64052;47.466;9.094;2023-04-29T02:31:48;95517.44;;;16.18;74.71
46456;BME280;64052;47.466;9.094;2023-04-29T02:36:50;95511.44;;;16.15;74.90
46456;BME280;64052;47.466;9.094;2023-04-29T02:41:55;95510.63;;;16.15;75.16
46456;BME280;64052;47.466;9.094;2023-04-29T02:46:56;95504.69;;;16.05;75.46
46456;BME280;64052;47.466;9.094;2023-04-29T02:51:58;95498.72;;;16.02;75.79
46456;BME280;64052;47.466;9.094;2023-04-29T02:56:59;95491.38;;;16.05;75.67
46456;BME280;64052;47.466;9.094;2023-04-29T03:02:01;95487.44;;;16.00;75.63
46456;BME280;64052;47.466;9.094;2023-04-29T03:07:03;95489.09;;;16.01;74.83
46456;BME280;64052;47.466;9.094;2023-04-29T03:12:04;95493.25;;;15.96;75.30
46456;BME280;64052;47.466;9.094;2023-04-29T03:17:06;95497.56;;;15.88;75.68
46456;BME280;64052;47.466;9.094;2023-04-29T03:22:07;95505.72;;;15.95;74.82
46456;BME280;64052;47.466;9.094;2023-04-29T03:27:09;95502.88;;;15.88;75.22
46456;BME280;64052;47.466;9.094;2023-04-29T03:32:11;95495.59;;;15.91;75.01
46456;BME280;64052;47.466;9.094;2023-04-29T03:37:12;95495.94;;;15.96;73.98
46456;BME280;64052;47.466;9.094;2023-04-29T03:42:19;95493.44;;;15.94;73.84
46456;BME280;64052;47.466;9.094;2023-04-29T03:47:20;95493.09;;;15.89;73.90
46456;BME280;64052;47.466;9.094;2023-04-29T03:52:22;95494.78;;;15.82;74.26
46456;BME280;64052;47.466;9.094;2023-04-29T03:57:28;95480.66;;;15.90;74.20
46456;BME280;64052;47.466;9.094;2023-04-29T04:02:30;95481.31;;;15.92;74.08
46456;BME280;64052;47.466;9.094;2023-04-29T04:07:32;95477.34;;;15.79;74.87
46456;BME280;64052;47.466;9.094;2023-04-29T04:12:56;95475.75;;;15.70;74.89
46456;BME280;64052;47.466;9.094;2023-04-29T04:17:58;95488.34;;;15.68;74.97
46456;BME280;64052;47.466;9.094;2023-04-29T04:23:00;95484.53;;;15.70;74.48
46456;BME280;64052;47.466;9.094;2023-04-29T04:28:04;95492.50;;;15.70;74.55
46456;BME280;64052;47.466;9.094;2023-04-29T04:33:23;95490.50;;;15.72;74.30
46456;BME280;64052;47.466;9.094;2023-04-29T04:38:25;95506.94;;;15.68;74.44
46456;BME280;64052;47.466;9.094;2023-04-29T04:43:27;95517.63;;;15.59;75.40
46456;BME280;64052;47.466;9.094;2023-04-29T04:48:29;95525.75;;;15.58;75.09
46456;BME280;64052;47.466;9.094;2023-04-29T04:53:31;95520.94;;;15.62;75.10
46456;BME280;64052;47.466;9.094;2023-04-29T04:58:38;95531.19;;;15.73;74.19
46456;BME280;64052;47.466;9.094;2023-04-29T05:03:40;95527.69;;;15.81;73.89
46456;BME280;64052;47.466;9.094;2023-04-29T05:08:42;95536.16;;;15.84;74.13
46456;BME280;64052;47.466;9.094;2023-04-29T05:13:44;95534.13;;;15.86;73.85
46456;BME280;64052;47.466;9.094;2023-04-29T05:18:46;95534.78;;;15.88;73.58
46456;BME280;64052;47.466;9.094;2023-04-29T05:23:49;95541.78;;;15.90;73.39
46456;BME280;64052;47.466;9.094;2023-04-29T05:28:50;95547.88;;;16.07;72.53
46456;BME280;64052;47.466;9.094;2023-04-29T05:33:53;95548.25;;;15.95;72.65
46456;BME280;64052;47.466;9.094;2023-04-29T05:38:56;95565.22;;;15.94;73.06
46456;BME280;64052;47.466;9.094;2023-04-29T05:43:57;95571.16;;;16.05;73.12
46456;BME280;64052;47.466;9.094;2023-04-29T05:48:59;95571.94;;;16.22;72.30
46456;BME280;64052;47.466;9.094;2023-04-29T05:54:00;95563.97;;;16.13;72.35
46456;BME280;64052;47.466;9.094;2023-04-29T05:59:03;95573.56;;;16.31;71.63
46456;BME280;64052;47.466;9.094;2023-04-29T06:04:05;95579.06;;;16.53;71.14
46456;BME280;64052;47.466;9.094;2023-04-29T06:09:25;95584.59;;;16.51;70.49
46456;BME280;64052;47.466;9.094;2023-04-29T06:14:34;95584.41;;;16.53;70.02
46456;BME280;64052;47.466;9.094;2023-04-29T06:19:37;95587.38;;;16.58;69.12
46456;BME280;64052;47.466;9.094;2023-04-29T06:24:39;95583.97;;;16.72;69.51
46456;BME280;64052;47.466;9.094;2023-04-29T06:29:41;95582.19;;;16.88;67.79
46456;BME280;64052;47.466;9.094;2023-04-29T06:34:43;95588.28;;;16.97;68.24
46456;BME280;64052;47.466;9.094;2023-04-29T06:40:14;95594.34;;;17.14;67.99
46456;BME280;64052;47.466;9.094;2023-04-29T06:45:35;95593.28;;;17.23;68.15
46456;BME280;64052;47.466;9.094;2023-04-29T06:50:57;95592.88;;;17.35;66.75
46456;BME280;64052;47.466;9.094;2023-04-29T06:55:58;95584.47;;;17.61;66.35
46456;BME280;64052;47.466;9.094;2023-04-29T07:01:00;95582.63;;;17.62;66.72
46456;BME280;64052;47.466;9.094;2023-04-29T07:06:02;95589.06;;;17.67;66.30
46456;BME280;64052;47.466;9.094;2023-04-29T07:11:03;95580.78;;;17.77;65.50
46456;BME280;64052;47.466;9.094;2023-04-29T07:16:13;95590.13;;;17.96;66.29
46456;BME280;64052;47.466;9.094;2023-04-29T07:21:15;95592.31;;;18.08;64.63
46456;BME280;64052;47.466;9.094;2023-04-29T07:26:17;95591.31;;;18.24;64.20
46456;BME280;64052;47.466;9.094;2023-04-29T07:31:19;95577.72;;;18.56;63.74
46456;BME280;64052;47.466;9.094;2023-04-29T07:36:22;95578.56;;;18.56;60.78
46456;BME280;64052;47.466;9.094;2023-04-29T07:41:23;95580.59;;;18.54;61.86
46456;BME280;64052;47.466;9.094;2023-04-29T07:46:25;95585.81;;;18.62;62.76
46456;BME280;64052;47.466;9.094;2023-04-29T07:51:26;95591.44;;;18.67;61.72
46456;BME280;64052;47.466;9.094;2023-04-29T07:56:28;95589.38;;;19.06;61.14
46456;BME280;64052;47.466;9.094;2023-04-29T08:01:29;95594.84;;;19.20;58.84
46456;BME280;64052;47.466;9.094;2023-04-29T08:06:31;95594.59;;;19.58;59.36
46456;BME280;64052;47.466;9.094;2023-04-29T08:11:33;95595.00;;;19.62;58.23
46456;BME280;64052;47.466;9.094;2023-04-29T08:16:34;95593.41;;;19.39;57.31
46456;BME280;64052;47.466;9.094;2023-04-29T08:21:36;95596.19;;;19.09;56.21
46456;BME280;64052;47.466;9.094;2023-04-29T08:26:39;95605.09;;;19.38;55.94
46456;BME280;64052;47.466;9.094;2023-04-29T08:31:40;95603.66;;;19.35;55.96
46456;BME280;64052;47.466;9.094;2023-04-29T08:36:42;95597.28;;;19.93;56.88
46456;BME280;64052;47.466;9.094;2023-04-29T08:41:43;95594.03;;;19.98;56.03
46456;BME280;64052;47.466;9.094;2023-04-29T08:46:45;95591.69;;;19.88;55.11
46456;BME280;64052;47.466;9.094;2023-04-29T08:51:48;95589.53;;;19.99;54.64
46456;BME280;64052;47.466;9.094;2023-04-29T08:56:50;95593.41;;;19.96;51.84
46456;BME280;64052;47.466;9.094;2023-04-29T09:01:52;95586.97;;;19.62;50.11
46456;BME280;64052;47.466;9.094;2023-04-29T09:06:55;95589.44;;;20.20;51.00
46456;BME280;64052;47.466;9.094;2023-04-29T09:11:58;95593.72;;;20.50;48.57
46456;BME280;64052;47.466;9.094;2023-04-29T09:16:59;95589.22;;;20.71;48.09
46456;BME280;64052;47.466;9.094;2023-04-29T09:22:03;95587.47;;;20.85;49.05
46456;BME280;64052;47.466;9.094;2023-04-29T09:27:04;95584.16;;;20.83;46.88
46456;BME280;64052;47.466;9.094;2023-04-29T09:32:18;95578.91;;;20.68;47.34
46456;BME280;64052;47.466;9.094;2023-04-29T09:37:25;95576.94;;;20.83;45.09
46456;BME280;64052;47.466;9.094;2023-04-29T09:42:27;95581.47;;;20.83;45.22
46456;BME280;64052;47.466;9.094;2023-04-29T09:47:29;95577.19;;;21.09;49.14
46456;BME280;64052;47.466;9.094;2023-04-29T09:52:39;95577.19;;;21.02;49.83
46456;BME280;64052;47.466;9.094;2023-04-29T09:57:40;95581.94;;;21.06;50.11
46456;BME280;64052;47.466;9.094;2023-04-29T10:02:46;95583.94;;;20.91;48.09
46456;BME280;64052;47.466;9.094;2023-04-29T10:07:48;95577.97;;;20.89;49.93
46456;BME280;64052;47.466;9.094;2023-04-29T10:12:54;95566.06;;;21.18;47.34
46456;BME280;64052;47.466;9.094;2023-04-29T10:18:13;95571.44;;;21.52;48.25
46456;BME280;64052;47.466;9.094;2023-04-29T10:23:19;95566.25;;;21.98;47.44
46456;BME280;64052;47.466;9.094;2023-04-29T10:28:22;95564.03;;;21.81;45.85
